Time;durP1;ratioP1;P1;durP2;ratioP2;P2;SDS_P1;SDS_P2;PMS_P1;PMS_P2;Temp;Humidity;BMP_temperature;BMP_pressure;BME280_temperature;BME280_humidity;BME280_pressure;Samples;Min_cycle;Max_cycle;Signal;HPM_P1;HPM_P2
2022/02/02 00:04:22;;;;;;;;;;;;;;;4.40;100.00;96336.94;4971197;28;19966;-74
2022/02/02 00:07:31;;;;;;;;;;;;;;;4.41;100.00;96348.13;4983197;28;20425;-74
2022/02/02 00:09:49;;;;;;;;;;;;;;;4.40;100.00;96336.94;4980267;28;19959;-74
2022/02/02 00:12:20;;;;;;;;;;;;;;;4.39;100.00;96334.53;4987309;28;20354;-74
2022/02/02 00:20:17;;;;;;;;;;;;;;;4.40;100.00;96347.34;4959101;28;19956;-73
2022/02/02 00:22:45;;;;;;;;;;;;;;;4.40;100.00;96347.34;4985404;28;20356;-74
2022/02/02 00:25:17;;;;;;;;;;;;;;;4.39;100.00;96356.13;4987082;28;19965;-74
2022/02/02 00:27:46;;;;;;;;;;;;;;;4.40;100.00;96354.34;4989116;28;19962;-73
2022/02/02 00:30:16;;;;;;;;;;;;;;;4.39;100.00;96326.75;4990683;28;19960;-74
2022/02/02 00:33:08;;;;;;;;;;;;;;;4.38;100.00;96325.94;4980854;28;19963;-74
2022/02/02 00:35:39;;;;;;;;;;;;;;;4.37;100.00;96331.34;4984420;28;19957;-74
2022/02/02 00:38:05;;;;;;;;;;;;;;;4.38;100.00;96328.53;4984941;28;19973;-74
2022/02/02 00:40:31;;;;;;;;;;;;;;;4.39;100.00;96337.94;4988050;28;20009;-74
2022/02/02 00:42:57;;;;;;;;;;;;;;;4.42;100.00;96349.75;4982100;28;19964;-74
2022/02/02 00:45:30;;;;;;;;;;;;;;;4.46;100.00;96333.63;4986773;28;20369;-74
2022/02/02 00:47:56;;;;;;;;;;;;;;;4.53;100.00;96325.13;4984620;28;19964;-74
2022/02/02 00:50:24;;;;;;;;;;;;;;;4.57;100.00;96326.38;4991360;28;19965;-74
2022/02/02 00:52:52;;;;;;;;;;;;;;;4.59;100.00;96309.59;4981050;28;19962;-74
2022/02/02 00:55:18;;;;;;;;;;;;;;;4.62;100.00;96298.03;4986368;28;20348;-73
2022/02/02 00:57:44;;;;;;;;;;;;;;;4.62;100.00;96317.03;4990279;28;19998;-74
2022/02/02 01:00:11;;;;;;;;;;;;;;;4.61;100.00;96320.63;4985692;28;19957;-74
2022/02/02 01:02:37;;;;;;;;;;;;;;;4.59;100.00;96334.78;4986811;28;19966;-74
2022/02/02 01:05:03;;;;;;;;;;;;;;;4.57;100.00;96327.16;4978940;28;19974;-74
2022/02/02 01:10:11;;;;;;;;;;;;;;;4.53;100.00;96319.94;4985444;28;19981;-74
2022/02/02 01:16:24;;;;;;;;;;;;;;;4.47;100.00;96329.25;4990158;28;20336;-75
2022/02/02 01:20:51;;;;;;;;;;;;;;;4.44;100.00;96332.22;4984322;28;19965;-74
2022/02/02 01:28:35;;;;;;;;;;;;;;;4.51;100.00;96360.84;4990208;28;19963;-74
2022/02/02 01:31:01;;;;;;;;;;;;;;;4.52;100.00;96347.69;4979788;28;19959;-74
2022/02/02 01:33:28;;;;;;;;;;;;;;;4.52;100.00;96363.28;4995002;28;19952;-73
2022/02/02 01:35:54;;;;;;;;;;;;;;;4.53;100.00;96362.28;4983153;28;19957;-74
2022/02/02 01:38:21;;;;;;;;;;;;;;;4.54;100.00;96353.50;4983423;28;19984;-74
2022/02/02 01:40:53;;;;;;;;;;;;;;;4.52;100.00;96337.31;4984358;28;19961;-73
2022/02/02 01:43:24;;;;;;;;;;;;;;;4.54;100.00;96348.31;4984934;28;19955;-74
2022/02/02 01:45:57;;;;;;;;;;;;;;;4.54;100.00;96343.13;4987261;28;19959;-74
2022/02/02 01:56:09;;;;;;;;;;;;;;;4.60;100.00;96339.78;4984995;28;19958;-73
2022/02/02 02:01:01;;;;;;;;;;;;;;;4.61;100.00;96338.00;4979191;28;19959;-74
2022/02/02 02:03:27;;;;;;;;;;;;;;;4.62;100.00;96349.97;4984973;28;19954;-74
2022/02/02 02:05:53;;;;;;;;;;;;;;;4.62;100.00;96345.63;4985094;28;20299;-74
2022/02/02 02:08:19;;;;;;;;;;;;;;;4.63;100.00;96347.22;4983991;28;19959;-74
2022/02/02 02:10:45;;;;;;;;;;;;;;;4.65;100.00;96360.81;4985204;28;20002;-73
2022/02/02 02:13:38;;;;;;;;;;;;;;;4.65;100.00;96355.63;4984502;28;19961;-74
2022/02/02 02:16:02;;;;;;;;;;;;;;;4.68;100.00;96365.66;4980568;28;19959;-74
2022/02/02 02:18:28;;;;;;;;;;;;;;;4.68;100.00;96360.47;4986270;28;19976;-74
2022/02/02 02:20:55;;;;;;;;;;;;;;;4.71;100.00;96356.69;4989931;28;19962;-74
2022/02/02 02:23:21;;;;;;;;;;;;;;;4.72;100.00;96340.09;4983724;28;20320;-74
2022/02/02 02:25:48;;;;;;;;;;;;;;;4.76;100.00;96343.16;4985113;28;19959;-74
2022/02/02 02:28:29;;;;;;;;;;;;;;;4.75;100.00;96326.78;4983298;28;20018;-74
2022/02/02 02:31:05;;;;;;;;;;;;;;;4.76;100.00;96330.16;4980253;28;19962;-75
2022/02/02 02:39:05;;;;;;;;;;;;;;;4.76;99.66;96324.97;4965114;28;19969;-74
2022/02/02 03:30:07;;;;;;;;;;;;;;;4.63;91.77;96330.84;4994386;28;19958;-74
2022/02/02 03:49:20;;;;;;;;;;;;;;;4.64;90.83;96322.88;4983846;28;19955;-73
2022/02/02 03:49:40;;;;;;;;;;;;;;;4.66;88.05;96354.66;4983426;28;20409;-74
2022/02/02 03:57:50;;;;;;;;;;;;;;;4.63;89.09;96359.41;4976052;28;20339;-73
2022/02/02 04:00:26;;;;;;;;;;;;;;;4.64;89.41;96355.78;4983063;28;19979;-74
2022/02/02 04:10:33;;;;;;;;;;;;;;;4.62;90.45;96357.78;4986461;28;20317;-73
2022/02/02 04:13:11;;;;;;;;;;;;;;;4.61;90.36;96366.56;4985680;28;19964;-73
2022/02/02 04:37:49;;;;;;;;;;;;;;;4.67;90.55;96404.81;4982253;28;19966;-74
2022/02/02 04:54:30;;;;;;;;;;;;;;;4.69;85.17;96392.44;4984959;28;19991;-74
2022/02/02 05:07:23;;;;;;;;;;;;;;;4.50;87.25;96398.22;4986750;28;19963;-74
2022/02/02 05:44:59;;;;;;;;;;;;;;;4.26;85.62;96460.59;4987098;28;19965;-74
2022/02/02 05:52:55;;;;;;;;;;;;;;;4.21;86.66;96451.72;4972028;28;20445;-74
2022/02/02 05:55:21;;;;;;;;;;;;;;;4.22;87.21;96456.75;4978626;28;19984;-74
2022/02/02 05:57:47;;;;;;;;;;;;;;;4.20;87.55;96463.91;4985904;28;19998;-74
2022/02/02 06:00:13;;;;;;;;;;;;;;;4.18;87.77;96475.41;4986549;28;19980;-74
2022/02/02 06:02:41;;;;;;;;;;;;;;;4.17;87.66;96458.25;4984780;28;19958;-74
2022/02/02 06:05:08;;;;;;;;;;;;;;;4.17;87.74;96458.25;4982558;28;19964;-73
2022/02/02 06:07:34;;;;;;;;;;;;;;;4.17;87.79;96464.25;4984402;28;20433;-73
2022/02/02 06:10:01;;;;;;;;;;;;;;;4.19;87.47;96456.28;4988895;28;19970;-73
2022/02/02 06:12:28;;;;;;;;;;;;;;;4.19;87.97;96448.50;4982353;28;19960;-74
2022/02/02 06:14:55;;;;;;;;;;;;;;;4.18;88.06;96437.31;4979885;28;19963;-74
2022/02/02 06:17:21;;;;;;;;;;;;;;;4.19;88.02;96444.09;4990726;28;19959;-74
2022/02/02 06:19:47;;;;;;;;;;;;;;;4.21;87.44;96439.53;4986483;28;19976;-74
2022/02/02 06:22:13;;;;;;;;;;;;;;;4.25;87.78;96429.63;4978426;28;19974;-74
2022/02/02 06:24:58;;;;;;;;;;;;;;;4.25;87.42;96430.41;4986035;28;20300;-74
2022/02/02 06:27:25;;;;;;;;;;;;;;;4.23;87.89;96447.16;4986662;28;19965;-74
2022/02/02 06:29:59;;;;;;;;;;;;;;;4.23;88.84;96453.16;4987211;28;19964;-74
2022/02/02 06:32:27;;;;;;;;;;;;;;;4.24;88.18;96457.38;4980955;28;19961;-74
2022/02/02 06:34:57;;;;;;;;;;;;;;;4.25;87.82;96458.19;4979353;28;19966;-74
2022/02/02 06:37:23;;;;;;;;;;;;;;;4.26;87.93;96449.38;4992112;28;19959;-73
2022/02/02 06:39:50;;;;;;;;;;;;;;;4.27;88.08;96448.41;4993662;28;19978;-74
2022/02/02 06:42:16;;;;;;;;;;;;;;;4.28;88.17;96460.41;4987885;28;19960;-73
2022/02/02 06:44:42;;;;;;;;;;;;;;;4.30;88.23;96462.81;4986164;28;20333;-74
2022/02/02 06:47:09;;;;;;;;;;;;;;;4.29;88.68;96462.03;4989359;28;19959;-74
2022/02/02 06:49:36;;;;;;;;;;;;;;;4.30;88.76;96471.41;4987698;28;19962;-74
2022/02/02 06:52:12;;;;;;;;;;;;;;;4.32;88.90;96484.22;4969258;28;19967;-74
2022/02/02 06:54:50;;;;;;;;;;;;;;;4.33;89.52;96498.84;4994937;28;20350;-73
2022/02/02 06:57:24;;;;;;;;;;;;;;;4.36;89.22;96506.25;4987168;28;19970;-73
2022/02/02 07:05:35;;;;;;;;;;;;;;;4.38;89.60;96493.91;4986235;28;19968;-74
2022/02/02 07:08:32;;;;;;;;;;;;;;;4.38;89.48;96514.69;4987076;28;19968;-73
2022/02/02 07:16:15;;;;;;;;;;;;;;;4.35;90.17;96531.41;4987655;28;19964;-74
2022/02/02 07:24:11;;;;;;;;;;;;;;;4.37;90.27;96546.84;4983648;28;20047;-74
2022/02/02 07:29:39;;;;;;;;;;;;;;;4.40;90.71;96557.66;4989788;28;19968;-73
2022/02/02 07:32:17;;;;;;;;;;;;;;;4.42;90.87;96567.88;4978259;28;20417;-75
2022/02/02 07:34:58;;;;;;;;;;;;;;;4.42;90.23;96552.28;4987215;28;19968;-74
2022/02/02 07:37:31;;;;;;;;;;;;;;;4.46;90.02;96556.94;4970118;28;19954;-74
2022/02/02 07:40:01;;;;;;;;;;;;;;;4.49;89.36;96563.56;4984593;28;19969;-74
2022/02/02 07:42:27;;;;;;;;;;;;;;;4.52;89.19;96563.22;4986671;28;19957;-73
2022/02/02 07:44:59;;;;;;;;;;;;;;;4.56;89.33;96561.09;4987031;28;19963;-74
2022/02/02 07:47:26;;;;;;;;;;;;;;;4.58;89.09;96569.53;4984943;28;19966;-74
2022/02/02 07:49:54;;;;;;;;;;;;;;;4.61;88.16;96563.97;4983235;28;19964;-74
2022/02/02 07:52:20;;;;;;;;;;;;;;;4.61;89.12;96569.97;4987744;28;19957;-74
2022/02/02 07:54:49;;;;;;;;;;;;;;;4.64;89.57;96576.56;4993458;28;19986;-74
2022/02/02 07:57:25;;;;;;;;;;;;;;;4.63;89.20;96578.38;4987291;28;19969;-75
2022/02/02 07:59:56;;;;;;;;;;;;;;;4.64;90.03;96572.22;4981019;28;19979;-74
2022/02/02 08:03:03;;;;;;;;;;;;;;;4.63;90.26;96564.59;4982967;28;19964;-75
2022/02/02 08:05:17;;;;;;;;;;;;;;;4.62;89.50;96569.00;4976556;28;19963;-74
2022/02/02 08:07:56;;;;;;;;;;;;;;;4.62;90.61;96574.19;4985908;28;19966;-74
2022/02/02 08:10:24;;;;;;;;;;;;;;;4.61;91.42;96577.75;4987205;28;19967;-74
2022/02/02 08:12:55;;;;;;;;;;;;;;;4.60;91.18;96576.16;4981708;28;19968;-74
2022/02/02 08:15:22;;;;;;;;;;;;;;;4.60;91.03;96594.34;4987952;28;19958;-74
2022/02/02 08:17:51;;;;;;;;;;;;;;;4.62;91.21;96604.53;4988760;28;20336;-74
2022/02/02 08:20:17;;;;;;;;;;;;;;;4.64;91.83;96599.97;4988252;28;20338;-73
2022/02/02 08:22:44;;;;;;;;;;;;;;;4.66;92.15;96601.41;4992156;28;19960;-74
2022/02/02 08:25:10;;;;;;;;;;;;;;;4.66;92.00;96603.19;4983445;28;19969;-74
2022/02/02 08:27:41;;;;;;;;;;;;;;;4.65;92.15;96614.56;4984987;28;20322;-74
2022/02/02 08:30:07;;;;;;;;;;;;;;;4.64;92.16;96618.13;4989931;28;20425;-74
2022/02/02 08:32:40;;;;;;;;;;;;;;;4.64;92.52;96612.94;4987225;28;19963;-74
2022/02/02 08:35:06;;;;;;;;;;;;;;;4.63;90.96;96622.53;4985473;28;19962;-74
2022/02/02 08:37:35;;;;;;;;;;;;;;;4.65;92.25;96628.38;4985940;28;19959;-73
2022/02/02 08:40:19;;;;;;;;;;;;;;;4.71;90.33;96633.84;4983489;28;19982;-73
2022/02/02 08:42:45;;;;;;;;;;;;;;;4.74;89.27;96634.28;4987222;28;19960;-74
2022/02/02 08:45:18;;;;;;;;;;;;;;;4.82;88.21;96638.63;4979194;28;19960;-75
2022/02/02 08:47:50;;;;;;;;;;;;;;;4.87;89.18;96644.06;4985927;28;20461;-74
2022/02/02 08:50:25;;;;;;;;;;;;;;;4.90;88.56;96640.34;4988962;28;19967;-74
2022/02/02 08:52:55;;;;;;;;;;;;;;;4.92;87.77;96648.78;4992323;28;19956;-74
2022/02/02 08:55:35;;;;;;;;;;;;;;;4.96;87.47;96652.63;4987512;28;19986;-73
2022/02/02 09:01:25;;;;;;;;;;;;;;;5.03;85.81;96641.31;4925356;29;19981;-74
2022/02/02 09:06:36;;;;;;;;;;;;;;;5.11;86.81;96653.44;4985379;28;19959;-74
2022/02/02 09:09:40;;;;;;;;;;;;;;;5.12;86.06;96649.84;4981504;28;19957;-73
2022/02/02 09:36:06;;;;;;;;;;;;;;;5.28;83.42;96680.09;4986917;28;19991;-73
2022/02/02 09:38:32;;;;;;;;;;;;;;;5.28;84.04;96680.88;4987176;28;19967;-73
2022/02/02 09:41:27;;;;;;;;;;;;;;;5.30;84.76;96693.72;4981134;28;19980;-74
2022/02/02 09:43:57;;;;;;;;;;;;;;;5.34;84.71;96696.78;4983280;28;19970;-74
2022/02/02 09:46:29;;;;;;;;;;;;;;;5.38;85.13;96693.63;4989932;28;19974;-74
2022/02/02 09:48:59;;;;;;;;;;;;;;;5.40;85.03;96699.47;4985110;28;19969;-74
2022/02/02 09:51:32;;;;;;;;;;;;;;;5.40;84.28;96694.25;4980673;28;19969;-74
2022/02/02 09:54:03;;;;;;;;;;;;;;;5.41;84.97;96701.06;4988387;28;19985;-74
2022/02/02 10:02:28;;;;;;;;;;;;;;;5.44;85.40;96715.53;4985532;28;19966;-74
2022/02/02 10:05:03;;;;;;;;;;;;;;;5.45;86.26;96719.72;4985831;28;19959;-73
2022/02/02 10:15:19;;;;;;;;;;;;;;;5.45;83.91;96736.13;4985626;28;19961;-74
2022/02/02 10:17:45;;;;;;;;;;;;;;;5.48;83.93;96743.59;4980328;28;19969;-74
2022/02/02 10:20:19;;;;;;;;;;;;;;;5.52;82.84;96728.41;4986809;28;19983;-74
2022/02/02 10:22:46;;;;;;;;;;;;;;;5.57;83.18;96740.91;4987730;28;20321;-74
2022/02/02 10:25:22;;;;;;;;;;;;;;;5.64;81.91;96741.81;4991062;28;20341;-74
2022/02/02 10:27:49;;;;;;;;;;;;;;;5.73;80.60;96740.72;4982519;28;19960;-75
2022/02/02 10:30:16;;;;;;;;;;;;;;;5.80;81.28;96744.22;4989179;28;19957;-73
2022/02/02 10:32:42;;;;;;;;;;;;;;;5.90;81.60;96749.97;4987549;28;20468;-74
2022/02/02 10:35:08;;;;;;;;;;;;;;;5.98;82.70;96751.69;4983723;28;20000;-74
2022/02/02 10:37:36;;;;;;;;;;;;;;;6.03;82.20;96744.16;4983680;28;19961;-74
2022/02/02 10:40:03;;;;;;;;;;;;;;;6.06;79.97;96735.97;4981238;28;20321;-74
2022/02/02 10:42:33;;;;;;;;;;;;;;;6.12;81.36;96744.84;4984914;28;19963;-73
2022/02/02 10:45:15;;;;;;;;;;;;;;;6.16;81.01;96750.53;4969671;28;20417;-74
2022/02/02 10:47:42;;;;;;;;;;;;;;;6.19;80.85;96748.34;4978425;28;19963;-74
2022/02/02 10:50:27;;;;;;;;;;;;;;;6.24;80.22;96747.81;4989897;28;19957;-75
2022/02/02 10:53:15;;;;;;;;;;;;;;;6.30;80.80;96740.06;4983977;28;19966;-74
2022/02/02 10:56:02;;;;;;;;;;;;;;;6.37;79.49;96734.94;4985028;28;19987;-74
2022/02/02 10:59:04;;;;;;;;;;;;;;;6.37;77.58;96727.13;4986765;28;20001;-75
2022/02/02 11:06:46;;;;;;;;;;;;;;;6.52;78.95;96742.69;4984319;28;20430;-75
2022/02/02 11:09:17;;;;;;;;;;;;;;;6.57;78.27;96735.13;4988116;28;19963;-74
2022/02/02 11:11:50;;;;;;;;;;;;;;;6.59;78.31;96732.34;4981267;28;19988;-74
2022/02/02 11:14:35;;;;;;;;;;;;;;;6.62;77.74;96731.97;4982270;28;19968;-74
2022/02/02 11:17:15;;;;;;;;;;;;;;;6.62;77.27;96734.59;4983128;28;19970;-75
2022/02/02 11:19:45;;;;;;;;;;;;;;;6.64;77.64;96741.22;4986546;28;20449;-74
2022/02/02 11:22:31;;;;;;;;;;;;;;;6.64;77.25;96743.81;4992463;28;19962;-74
2022/02/02 11:24:58;;;;;;;;;;;;;;;6.66;77.60;96736.63;4986541;28;19973;-74
2022/02/02 11:27:35;;;;;;;;;;;;;;;6.84;77.23;96724.97;4984492;28;19961;-74
2022/02/02 11:30:25;;;;;;;;;;;;;;;6.99;78.06;96720.50;4985214;28;20341;-74
2022/02/02 11:33:01;;;;;;;;;;;;;;;7.25;73.60;96687.78;4968741;28;19966;-74
2022/02/02 11:35:35;;;;;;;;;;;;;;;7.50;75.75;96701.97;4985956;28;19968;-74
2022/02/02 11:38:05;;;;;;;;;;;;;;;7.51;74.66;96708.00;4984631;28;20325;-75
2022/02/02 11:40:35;;;;;;;;;;;;;;;7.51;74.31;96714.03;4986843;28;19986;-74
2022/02/02 11:43:11;;;;;;;;;;;;;;;7.45;72.78;96704.34;4988217;28;19967;-74
2022/02/02 11:46:03;;;;;;;;;;;;;;;7.58;73.80;96710.66;4992596;28;19964;-74
2022/02/02 11:48:45;;;;;;;;;;;;;;;7.64;71.00;96682.00;4987602;28;19962;-74
2022/02/02 11:51:30;;;;;;;;;;;;;;;7.78;73.97;96723.81;4989597;28;19962;-74
2022/02/02 11:53:57;;;;;;;;;;;;;;;7.86;71.18;96693.13;4982485;28;19992;-74
2022/02/02 11:56:28;;;;;;;;;;;;;;;7.86;73.76;96732.28;4987217;28;19971;-74
2022/02/02 11:58:54;;;;;;;;;;;;;;;7.75;71.94;96706.75;4983953;28;19972;-74
2022/02/02 12:01:43;;;;;;;;;;;;;;;7.60;71.58;96693.00;4984940;28;19977;-74
2022/02/02 12:04:24;;;;;;;;;;;;;;;7.49;71.59;96697.75;4990669;28;19972;-74
2022/02/02 12:36:04;;;;;;;;;;;;;;;6.67;78.53;96792.16;4982129;28;19952;-74
2022/02/02 12:57:26;;;;;;;;;;;;;;;6.73;78.28;96790.63;4980304;28;19968;-74
2022/02/02 13:00:06;;;;;;;;;;;;;;;6.76;79.29;96796.28;4982407;28;19989;-74
2022/02/02 13:02:34;;;;;;;;;;;;;;;6.82;79.17;96789.50;4986734;28;19953;-74
2022/02/02 13:05:01;;;;;;;;;;;;;;;6.88;78.99;96783.56;4988820;28;19965;-74
2022/02/02 13:07:28;;;;;;;;;;;;;;;6.90;77.53;96776.34;4975295;28;19966;-73
2022/02/02 13:09:54;;;;;;;;;;;;;;;6.88;76.95;96779.13;4979841;28;19951;-74
2022/02/02 13:12:33;;;;;;;;;;;;;;;6.90;76.74;96779.75;4985386;28;19967;-74
2022/02/02 13:15:10;;;;;;;;;;;;;;;6.94;77.41;96780.19;4988119;28;19962;-74
2022/02/02 13:18:02;;;;;;;;;;;;;;;6.99;77.07;96779.63;4990588;28;20095;-73
2022/02/02 13:20:46;;;;;;;;;;;;;;;7.01;76.12;96772.44;4981890;28;19971;-73
2022/02/02 13:23:21;;;;;;;;;;;;;;;7.02;76.00;96777.47;4985533;28;19970;-73
2022/02/02 13:25:56;;;;;;;;;;;;;;;6.99;75.07;96780.47;4984439;28;19968;-74
2022/02/02 13:28:36;;;;;;;;;;;;;;;6.97;74.87;96784.22;4985489;28;19961;-74
2022/02/02 13:31:02;;;;;;;;;;;;;;;6.97;76.08;96805.91;4988803;28;19975;-74
2022/02/02 13:33:35;;;;;;;;;;;;;;;6.97;75.16;96794.66;4983769;28;19963;-74
2022/02/02 13:36:13;;;;;;;;;;;;;;;6.93;74.75;96786.44;4980567;28;19967;-75
2022/02/02 13:44:38;;;;;;;;;;;;;;;6.88;76.10;96812.22;4982434;28;19959;-74
2022/02/02 13:47:42;;;;;;;;;;;;;;;6.84;76.45;96817.00;4982765;28;19964;-74
2022/02/02 13:53:51;;;;;;;;;;;;;;;6.73;76.19;96834.94;4977385;28;19962;-74
2022/02/02 14:07:18;;;;;;;;;;;;;;;6.50;76.87;96854.09;4984699;28;19968;-74
2022/02/02 14:31:26;;;;;;;;;;;;;;;6.28;78.34;96913.16;4983006;28;19963;-74
2022/02/02 14:33:53;;;;;;;;;;;;;;;6.25;78.36;96906.47;4983667;28;19961;-74
2022/02/02 14:36:22;;;;;;;;;;;;;;;6.24;78.77;96923.09;4984956;28;19958;-74
2022/02/02 14:41:39;;;;;;;;;;;;;;;6.25;79.21;96926.50;4986607;28;19969;-74
2022/02/02 14:44:21;;;;;;;;;;;;;;;6.23;78.89;96924.09;4985186;28;19966;-74
2022/02/02 14:47:00;;;;;;;;;;;;;;;6.22;78.94;96925.09;4982428;28;19972;-74
2022/02/02 14:52:17;;;;;;;;;;;;;;;6.23;79.79;96938.91;4986480;28;20451;-74
2022/02/02 15:27:17;;;;;;;;;;;;;;;6.04;86.19;96942.81;4977244;28;19973;-75
2022/02/02 15:29:56;;;;;;;;;;;;;;;6.02;85.78;96940.41;4987098;28;20426;-74
2022/02/02 15:32:22;;;;;;;;;;;;;;;6.03;85.61;96952.44;4988168;28;20327;-73
2022/02/02 15:34:52;;;;;;;;;;;;;;;6.05;85.69;96958.28;4989577;28;19974;-74
2022/02/02 15:39:55;;;;;;;;;;;;;;;6.02;85.83;96963.81;4985051;28;19975;-74
2022/02/02 15:58:28;;;;;;;;;;;;;;;5.91;86.47;96953.81;4983617;28;19960;-73
2022/02/02 16:06:05;;;;;;;;;;;;;;;5.91;86.02;96961.63;4987587;28;19963;-74
2022/02/02 16:08:31;;;;;;;;;;;;;;;5.92;86.10;96957.22;4985252;28;19962;-74
2022/02/02 16:13:43;;;;;;;;;;;;;;;5.92;85.92;96971.03;4981264;28;19990;-75
2022/02/02 16:18:56;;;;;;;;;;;;;;;5.89;86.13;96982.63;4987341;28;19964;-74
2022/02/02 16:37:30;;;;;;;;;;;;;;;5.78;88.92;96987.44;4981192;28;19960;-74
2022/02/02 16:39:59;;;;;;;;;;;;;;;5.75;89.38;96990.38;4986466;28;20475;-74
2022/02/02 16:45:11;;;;;;;;;;;;;;;5.75;89.11;96988.56;4989010;28;20427;-74
2022/02/02 16:47:36;;;;;;;;;;;;;;;5.73;89.28;96985.34;4985324;28;19958;-74
2022/02/02 16:50:03;;;;;;;;;;;;;;;5.71;89.30;96987.31;4984919;28;20041;-74
2022/02/02 16:52:31;;;;;;;;;;;;;;;5.71;88.99;96982.09;4986486;28;19968;-74
2022/02/02 16:55:01;;;;;;;;;;;;;;;5.72;88.81;96994.13;4980053;28;19984;-74
2022/02/02 17:35:07;;;;;;;;;;;;;;;5.58;88.29;97026.91;4983797;28;20370;-74
2022/02/02 17:37:53;;;;;;;;;;;;;;;5.55;88.27;97032.47;4966033;28;19964;-74
2022/02/02 17:40:35;;;;;;;;;;;;;;;5.55;88.44;97039.47;4983698;28;19965;-74
2022/02/02 17:56:13;;;;;;;;;;;;;;;5.53;88.65;97054.44;4986368;28;20324;-73
2022/02/02 18:21:14;;;;;;;;;;;;;;;5.40;88.96;97055.00;4982594;28;20333;-74
2022/02/02 18:23:50;;;;;;;;;;;;;;;5.37;89.00;97050.13;4986470;28;19967;-74
2022/02/02 18:26:24;;;;;;;;;;;;;;;5.34;88.78;97056.47;4984786;28;19969;-74
2022/02/02 18:37:05;;;;;;;;;;;;;;;5.25;88.91;97057.50;4990004;28;19960;-74
2022/02/02 18:50:47;;;;;;;;;;;;;;;5.02;87.93;97060.00;4984882;28;20342;-74
2022/02/02 18:58:11;;;;;;;;;;;;;;;4.85;87.72;97067.84;4987959;28;20375;-74
2022/02/02 19:08:12;;;;;;;;;;;;;;;4.76;88.27;97081.81;4987856;28;20342;-73
2022/02/02 19:56:42;;;;;;;;;;;;;;;4.82;92.04;97101.94;4987037;28;19955;-73
2022/02/02 20:05:16;;;;;;;;;;;;;;;4.83;92.10;97095.78;4986760;28;20408;-72
2022/02/02 20:08:20;;;;;;;;;;;;;;;4.83;92.22;97098.38;4973225;28;19967;-75
2022/02/02 20:10:36;;;;;;;;;;;;;;;4.83;92.24;97108.78;4986467;28;20387;-75
2022/02/02 20:13:02;;;;;;;;;;;;;;;4.85;92.11;97106.00;4987542;28;19956;-73
2022/02/02 20:15:33;;;;;;;;;;;;;;;4.85;92.08;97103.41;4988109;28;20004;-75
2022/02/02 20:18:02;;;;;;;;;;;;;;;4.87;92.54;97101.44;4986368;28;19958;-75
2022/02/02 20:20:28;;;;;;;;;;;;;;;4.88;92.36;97095.28;4986887;28;20420;-76
2022/02/02 20:22:54;;;;;;;;;;;;;;;4.88;92.48;97101.28;4980153;28;20001;-75
2022/02/02 20:25:19;;;;;;;;;;;;;;;4.90;92.74;97106.34;4983495;28;19971;-76
2022/02/02 20:27:53;;;;;;;;;;;;;;;4.92;93.10;97112.19;4986512;28;19960;-75
2022/02/02 20:30:19;;;;;;;;;;;;;;;4.92;92.89;97108.78;4989513;28;20079;-75
2022/02/02 20:32:45;;;;;;;;;;;;;;;4.92;93.00;97108.78;4989318;28;19966;-75
2022/02/02 20:35:11;;;;;;;;;;;;;;;4.94;93.34;97112.03;4979635;28;19979;-75
2022/02/02 20:37:37;;;;;;;;;;;;;;;4.94;93.49;97110.22;4987399;28;20044;-76
2022/02/02 20:40:06;;;;;;;;;;;;;;;4.96;93.52;97107.47;4987798;28;20463;-76
2022/02/02 20:42:38;;;;;;;;;;;;;;;4.97;93.62;97109.06;4981438;28;20342;-75
2022/02/02 20:45:30;;;;;;;;;;;;;;;4.97;93.50;97107.28;4988475;28;19961;-75
2022/02/02 21:08:03;;;;;;;;;;;;;;;5.01;94.28;97105.97;4908871;29;20198;-76
2022/02/02 21:10:28;;;;;;;;;;;;;;;5.04;94.72;97112.63;4979224;28;19978;-75
2022/02/02 21:15:40;;;;;;;;;;;;;;;5.04;94.76;97112.63;4967773;28;20412;-75
2022/02/02 21:18:09;;;;;;;;;;;;;;;5.03;95.59;97111.00;4986179;28;19962;-76
2022/02/02 21:20:46;;;;;;;;;;;;;;;5.00;95.58;97106.97;4988664;28;19968;-75
2022/02/02 21:23:27;;;;;;;;;;;;;;;4.96;95.81;97110.88;4989754;28;19984;-76
2022/02/02 21:28:32;;;;;;;;;;;;;;;4.98;95.66;97124.50;4985606;28;19968;-75
2022/02/02 21:30:58;;;;;;;;;;;;;;;4.99;95.33;97113.13;4978514;28;19970;-75
2022/02/02 21:33:25;;;;;;;;;;;;;;;4.99;96.75;97123.53;4985254;28;19961;-75
2022/02/02 21:35:53;;;;;;;;;;;;;;;4.98;96.72;97119.31;4988621;28;19958;-75
2022/02/02 21:38:34;;;;;;;;;;;;;;;5.01;96.33;97112.97;4986027;28;19971;-75
2022/02/02 21:41:00;;;;;;;;;;;;;;;5.02;96.05;97114.59;4975142;28;20333;-75
2022/02/02 21:43:27;;;;;;;;;;;;;;;5.03;96.46;97118.81;4982352;28;19990;-75
2022/02/02 21:45:55;;;;;;;;;;;;;;;5.03;96.36;97117.00;4982734;28;20530;-75
2022/02/02 21:48:22;;;;;;;;;;;;;;;5.05;96.39;97116.84;4991643;28;19958;-75
2022/02/02 21:50:53;;;;;;;;;;;;;;;5.06;96.25;97114.09;4989134;28;19969;-75
2022/02/02 21:53:19;;;;;;;;;;;;;;;5.07;96.05;97117.50;4980927;28;19960;-75
2022/02/02 21:55:46;;;;;;;;;;;;;;;5.08;96.54;97114.75;4984363;28;19982;-75
2022/02/02 21:58:12;;;;;;;;;;;;;;;5.09;97.00;97110.34;4984556;28;19963;-75
2022/02/02 22:00:38;;;;;;;;;;;;;;;5.09;96.46;97113.75;4989185;28;19958;-75
2022/02/02 22:03:04;;;;;;;;;;;;;;;5.09;96.15;97111.16;4980594;28;19966;-75
2022/02/02 22:05:30;;;;;;;;;;;;;;;5.11;96.29;97111.00;4983574;28;19974;-75
2022/02/02 22:07:56;;;;;;;;;;;;;;;5.12;96.55;97115.19;4989950;28;19957;-75
2022/02/02 22:10:22;;;;;;;;;;;;;;;5.13;96.72;97109.03;4981520;28;20017;-75
2022/02/02 22:12:48;;;;;;;;;;;;;;;5.14;96.71;97110.66;4983747;28;19955;-75
2022/02/02 22:15:21;;;;;;;;;;;;;;;5.14;97.44;97102.03;4985358;28;19963;-75
2022/02/02 22:17:47;;;;;;;;;;;;;;;5.15;96.96;97108.88;4986643;28;20331;-75
2022/02/02 22:20:16;;;;;;;;;;;;;;;5.16;97.15;97115.69;4978008;28;19975;-76
2022/02/02 22:22:42;;;;;;;;;;;;;;;5.15;97.60;97112.28;4977528;28;19987;-76
2022/02/02 22:25:09;;;;;;;;;;;;;;;5.15;97.41;97114.88;4973653;28;20373;-75
2022/02/02 22:27:35;;;;;;;;;;;;;;;5.15;97.34;97117.50;4982738;28;20324;-75
2022/02/02 22:30:03;;;;;;;;;;;;;;;5.16;97.09;97110.50;4983274;28;19959;-75
2022/02/02 22:32:29;;;;;;;;;;;;;;;5.16;97.38;97124.28;4985693;28;19954;-75
2022/02/02 22:34:55;;;;;;;;;;;;;;;5.17;97.31;97125.13;4985166;28;19965;-75
2022/02/02 22:37:22;;;;;;;;;;;;;;;5.16;97.28;97128.69;4987280;28;19956;-76
2022/02/02 22:39:50;;;;;;;;;;;;;;;5.15;98.07;97125.28;4979343;28;19968;-75
2022/02/02 22:42:18;;;;;;;;;;;;;;;5.15;97.88;97129.69;4985190;28;19976;-75
2022/02/02 22:44:44;;;;;;;;;;;;;;;5.16;97.90;97131.28;4981671;28;19970;-76
2022/02/02 22:47:11;;;;;;;;;;;;;;;5.14;97.78;97130.63;4984676;28;20050;-75
2022/02/02 22:49:40;;;;;;;;;;;;;;;5.08;98.99;97130.34;4983575;28;20431;-75
2022/02/02 22:52:07;;;;;;;;;;;;;;;5.08;98.84;97137.31;4983118;28;19983;-75
2022/02/02 22:54:33;;;;;;;;;;;;;;;5.08;98.83;97132.94;4983920;28;19994;-75
2022/02/02 22:56:59;;;;;;;;;;;;;;;5.12;98.46;97132.59;4977519;28;19966;-75
2022/02/02 22:59:25;;;;;;;;;;;;;;;5.11;99.21;97137.00;4984540;28;20362;-75
2022/02/02 23:01:58;;;;;;;;;;;;;;;5.12;98.71;97136.00;4989179;28;19961;-75
2022/02/02 23:04:24;;;;;;;;;;;;;;;5.13;99.32;97140.25;4985728;28;19970;-75
2022/02/02 23:07:00;;;;;;;;;;;;;;;5.13;98.92;97139.44;4978652;28;19998;-75
2022/02/02 23:09:26;;;;;;;;;;;;;;;5.15;98.42;97137.47;4985102;28;19997;-74
2022/02/02 23:11:52;;;;;;;;;;;;;;;5.16;98.51;97147.69;4986272;28;19978;-75
2022/02/02 23:14:22;;;;;;;;;;;;;;;5.17;98.32;97149.34;4982108;28;20399;-75
2022/02/02 23:16:50;;;;;;;;;;;;;;;5.15;98.62;97148.69;4981933;28;19971;-75
2022/02/02 23:19:16;;;;;;;;;;;;;;;5.15;98.84;97146.09;4986789;28;19970;-75
2022/02/02 23:21:43;;;;;;;;;;;;;;;5.15;98.49;97142.69;4990977;28;19964;-75
2022/02/02 23:24:11;;;;;;;;;;;;;;;5.17;98.46;97138.13;4988617;28;19991;-75
2022/02/02 23:26:37;;;;;;;;;;;;;;;5.19;98.33;97138.78;4981780;28;20444;-76
2022/02/02 23:29:03;;;;;;;;;;;;;;;5.19;98.02;97136.97;4990833;28;19968;-75
2022/02/02 23:31:29;;;;;;;;;;;;;;;5.20;97.98;97133.38;4991646;28;20332;-76
2022/02/02 23:33:55;;;;;;;;;;;;;;;5.22;98.25;97139.22;4982404;28;19961;-75
2022/02/02 23:36:21;;;;;;;;;;;;;;;5.22;98.38;97139.22;4989973;28;19973;-75
2022/02/02 23:38:47;;;;;;;;;;;;;;;5.23;98.13;97137.47;4989405;28;19969;-75
2022/02/02 23:43:58;;;;;;;;;;;;;;;5.23;98.16;97140.88;4983594;28;20376;-75
2022/02/02 23:46:25;;;;;;;;;;;;;;;5.24;98.40;97133.88;4986055;28;19956;-75